createdAt,value
2017-08-16T00:00:56.461Z,18.00
2017-08-16T00:03:22.772Z,18.10
2017-08-16T00:05:49.069Z,18.20
2017-08-16T00:08:16.089Z,18.40
2017-08-16T00:10:42.372Z,18.40
2017-08-16T00:13:08.666Z,18.40
2017-08-16T00:15:35.697Z,18.50
2017-08-16T00:18:01.986Z,18.50
2017-08-16T00:20:28.289Z,18.60
2017-08-16T00:22:54.572Z,18.50
2017-08-16T00:25:20.848Z,18.30
2017-08-16T00:27:47.124Z,18.30
2017-08-16T00:30:13.482Z,18.30
2017-08-16T00:32:40.532Z,18.20
2017-08-16T00:35:06.840Z,18.20
2017-08-16T00:37:34.157Z,18.20
2017-08-16T00:40:00.453Z,18.20
2017-08-16T00:42:26.788Z,18.10
2017-08-16T00:44:53.106Z,18.00
2017-08-16T00:47:19.526Z,18.00
2017-08-16T00:49:46.577Z,17.90
2017-08-16T00:52:13.636Z,17.90
2017-08-16T00:54:40.700Z,17.90
2017-08-16T00:57:07.008Z,17.80
2017-08-16T00:59:34.059Z,17.80
2017-08-16T01:02:01.129Z,17.70
2017-08-16T01:04:27.438Z,17.70
2017-08-16T01:06:55.494Z,17.80
2017-08-16T01:09:22.548Z,17.90
2017-08-16T01:11:49.573Z,17.90
2017-08-16T01:14:15.866Z,17.90
2017-08-16T01:16:42.157Z,17.90
2017-08-16T01:19:09.197Z,18.10
2017-08-16T01:21:35.489Z,18.00
2017-08-16T01:24:01.773Z,18.00
2017-08-16T01:26:28.099Z,18.00
2017-08-16T01:28:54.389Z,17.80
2017-08-16T01:31:20.672Z,17.30
2017-08-16T01:33:46.957Z,17.40
2017-08-16T01:36:13.266Z,17.30
2017-08-16T01:38:39.565Z,17.30
2017-08-16T01:41:05.873Z,17.40
2017-08-16T01:43:32.888Z,17.60
2017-08-16T01:45:59.180Z,17.60
2017-08-16T01:48:25.474Z,17.80
2017-08-16T01:50:53.514Z,18.00
2017-08-16T01:53:19.797Z,17.90
2017-08-16T01:55:46.081Z,18.00
2017-08-16T01:58:13.393Z,18.00
2017-08-16T02:00:39.703Z,17.90
2017-08-16T02:03:06.005Z,17.70
2017-08-16T02:05:32.297Z,17.80
2017-08-16T02:07:58.597Z,17.60
2017-08-16T02:10:24.881Z,17.40
2017-08-16T02:12:51.174Z,17.20
2017-08-16T02:15:17.476Z,17.20
2017-08-16T02:17:43.782Z,17.30
2017-08-16T02:20:10.805Z,17.30
2017-08-16T02:22:37.089Z,17.30
2017-08-16T02:25:03.386Z,17.30
2017-08-16T02:27:29.694Z,17.30
2017-08-16T02:29:55.989Z,17.30
2017-08-16T02:32:22.294Z,17.30
2017-08-16T02:34:49.582Z,17.10
2017-08-16T02:37:15.877Z,16.90
2017-08-16T02:39:43.269Z,16.90
2017-08-16T02:42:09.559Z,17.00
2017-08-16T02:44:35.846Z,16.90
2017-08-16T02:47:03.181Z,16.90
2017-08-16T02:49:29.495Z,17.10
2017-08-16T02:51:55.813Z,17.00
2017-08-16T02:54:22.151Z,17.00
2017-08-16T02:56:49.327Z,17.00
2017-08-16T02:59:15.657Z,17.00
2017-08-16T03:01:41.992Z,17.00
2017-08-16T03:04:08.321Z,17.00
2017-08-16T03:06:34.661Z,17.20
2017-08-16T03:09:00.996Z,17.30
2017-08-16T03:11:27.330Z,17.40
2017-08-16T03:13:53.665Z,17.50
2017-08-16T03:16:19.982Z,17.60
2017-08-16T03:18:46.358Z,17.50
2017-08-16T03:21:12.683Z,17.60
2017-08-16T03:23:39.013Z,17.70
2017-08-16T03:26:05.336Z,17.70
2017-08-16T03:28:32.658Z,17.80
2017-08-16T03:30:58.986Z,17.80
2017-08-16T03:33:25.308Z,17.70
2017-08-16T03:35:51.642Z,17.70
2017-08-16T03:38:17.977Z,17.50
2017-08-16T03:40:44.308Z,17.40
2017-08-16T03:43:10.644Z,17.20
2017-08-16T03:45:36.974Z,17.20
2017-08-16T03:48:03.309Z,17.20
2017-08-16T03:50:29.641Z,17.20
2017-08-16T03:52:56.001Z,17.10
2017-08-16T03:55:22.322Z,17.10
2017-08-16T03:57:48.642Z,17.00
2017-08-16T04:00:14.984Z,16.90
2017-08-16T04:02:41.313Z,16.80
2017-08-16T04:05:07.637Z,16.90
2017-08-16T04:07:34.696Z,16.90
2017-08-16T04:10:01.018Z,16.90
2017-08-16T04:12:27.346Z,16.90
2017-08-16T04:14:54.428Z,16.80
2017-08-16T04:17:20.762Z,16.80
2017-08-16T04:19:47.085Z,16.70
2017-08-16T04:22:13.404Z,16.80
2017-08-16T04:24:39.749Z,16.80
2017-08-16T04:27:06.079Z,16.70
2017-08-16T04:29:32.400Z,16.70
2017-08-16T04:31:58.713Z,16.70
2017-08-16T04:34:26.046Z,16.80
2017-08-16T04:36:52.386Z,16.90
2017-08-16T04:39:18.712Z,17.10
2017-08-16T04:41:45.777Z,17.10
2017-08-16T04:44:13.093Z,17.10
2017-08-16T04:46:39.414Z,17.10
2017-08-16T04:49:05.737Z,17.10
2017-08-16T04:51:32.070Z,17.00
2017-08-16T04:53:58.393Z,16.90
2017-08-16T04:56:24.717Z,16.90
2017-08-16T04:58:51.042Z,16.90
2017-08-16T05:01:17.409Z,16.90
2017-08-16T05:03:43.738Z,17.00
2017-08-16T05:06:10.060Z,17.10
2017-08-16T05:08:37.410Z,17.20
2017-08-16T05:11:03.750Z,17.40
2017-08-16T05:13:30.100Z,17.60
2017-08-16T05:15:57.161Z,17.50
2017-08-16T05:18:23.481Z,17.50
2017-08-16T05:20:50.554Z,17.50
2017-08-16T05:23:16.877Z,17.50
2017-08-16T05:25:43.230Z,17.50
2017-08-16T05:28:09.544Z,17.40
2017-08-16T05:30:35.870Z,17.50
2017-08-16T05:33:02.226Z,17.50
2017-08-16T05:35:29.545Z,17.50
2017-08-16T05:37:56.877Z,17.50
2017-08-16T05:40:23.966Z,17.60
2017-08-16T05:42:50.298Z,17.60
2017-08-16T05:45:16.621Z,17.70
2017-08-16T05:47:43.367Z,17.70
2017-08-16T05:50:09.694Z,17.80
2017-08-16T05:52:35.986Z,17.70
2017-08-16T05:55:04.062Z,17.60
2017-08-16T05:57:31.112Z,17.70
2017-08-16T05:59:58.137Z,17.80
2017-08-16T06:02:24.437Z,17.80
2017-08-16T06:04:50.721Z,17.90
2017-08-16T06:07:17.009Z,18.10
2017-08-16T06:09:43.309Z,18.20
2017-08-16T06:12:10.641Z,18.30
2017-08-16T06:14:36.925Z,18.40
2017-08-16T06:17:04.216Z,18.40
2017-08-16T06:19:30.502Z,18.40
2017-08-16T06:21:56.777Z,18.70
2017-08-16T06:24:23.061Z,18.70
2017-08-16T06:26:49.345Z,18.80
2017-08-16T06:29:15.629Z,19.10
2017-08-16T06:31:41.917Z,19.10
2017-08-16T06:34:08.217Z,19.20
2017-08-16T06:36:35.233Z,19.20
2017-08-16T06:39:01.521Z,19.20
2017-08-16T06:41:27.821Z,19.30
2017-08-16T06:43:54.853Z,19.80
2017-08-16T06:46:21.142Z,19.80
2017-08-16T06:48:47.437Z,20.00
2017-08-16T06:51:13.730Z,20.20
2017-08-16T06:53:40.016Z,20.30
2017-08-16T06:56:06.309Z,20.40
2017-08-16T06:58:33.346Z,20.50
2017-08-16T07:01:00.377Z,20.30
2017-08-16T07:03:26.668Z,20.30
2017-08-16T07:05:52.953Z,20.20
2017-08-16T07:08:19.997Z,20.00
2017-08-16T07:10:47.024Z,20.00
2017-08-16T07:13:13.301Z,20.00
2017-08-16T07:15:39.577Z,20.00
2017-08-16T07:18:05.882Z,20.10
2017-08-16T07:20:32.161Z,20.00
2017-08-16T07:22:58.445Z,20.10
2017-08-16T07:25:24.740Z,20.20
2017-08-16T07:27:51.020Z,20.20
2017-08-16T07:30:17.309Z,20.10
2017-08-16T07:32:43.632Z,20.10
2017-08-16T07:35:09.917Z,20.10
2017-08-16T07:37:36.213Z,20.20
2017-08-16T07:40:02.512Z,20.10
2017-08-16T07:42:28.802Z,20.10
2017-08-16T07:44:55.085Z,20.10
2017-08-16T07:47:21.365Z,20.00
2017-08-16T07:49:47.666Z,20.00
2017-08-16T07:52:14.969Z,20.00
2017-08-16T07:54:43.005Z,20.00
2017-08-16T07:57:09.288Z,20.00
2017-08-16T07:59:35.576Z,20.10
2017-08-16T08:02:01.861Z,20.10
2017-08-16T08:04:28.181Z,20.30
2017-08-16T08:06:54.480Z,20.40
2017-08-16T08:09:22.537Z,20.50
2017-08-16T08:11:48.845Z,20.50
2017-08-16T08:14:15.137Z,20.50
2017-08-16T08:16:42.429Z,20.50
2017-08-16T08:19:08.731Z,20.60
2017-08-16T08:21:35.022Z,20.60
2017-08-16T08:24:01.309Z,20.50
2017-08-16T08:26:27.593Z,20.60
2017-08-16T08:28:54.629Z,21.00
2017-08-16T08:31:20.935Z,21.00
2017-08-16T08:33:47.223Z,21.20
2017-08-16T08:36:13.518Z,21.30
2017-08-16T08:38:40.557Z,21.70
2017-08-16T08:41:07.584Z,21.90
2017-08-16T08:43:33.864Z,21.90
2017-08-16T08:46:00.153Z,22.10
2017-08-16T08:48:26.445Z,22.20
2017-08-16T08:50:53.469Z,22.30
2017-08-16T08:53:19.757Z,22.30
2017-08-16T08:55:46.051Z,22.30
2017-08-16T08:58:12.328Z,22.40
2017-08-16T09:00:39.369Z,22.60
2017-08-16T09:03:06.397Z,22.70
2017-08-16T09:05:32.721Z,22.60
2017-08-16T09:07:59.004Z,22.70
2017-08-16T09:10:25.293Z,22.50
2017-08-16T09:12:51.590Z,22.30
2017-08-16T09:15:17.885Z,22.60
2017-08-16T09:17:44.168Z,22.70
2017-08-16T09:20:10.474Z,22.90
2017-08-16T09:22:36.764Z,23.20
2017-08-16T09:25:03.785Z,23.50
2017-08-16T09:27:30.073Z,23.50
2017-08-16T09:29:56.364Z,23.50
2017-08-16T09:32:23.417Z,23.80
2017-08-16T09:34:50.457Z,23.90
2017-08-16T09:37:17.486Z,23.80
2017-08-16T09:39:43.777Z,23.80
2017-08-16T09:42:10.069Z,23.70
2017-08-16T09:44:36.364Z,23.60
2017-08-16T09:47:02.649Z,23.40
2017-08-16T09:49:28.942Z,23.40
2017-08-16T09:51:55.965Z,23.30
2017-08-16T09:54:22.250Z,23.30
2017-08-16T09:56:48.565Z,23.60
2017-08-16T09:59:14.853Z,24.00
2017-08-16T10:01:41.149Z,24.30
2017-08-16T10:04:07.441Z,24.70
2017-08-16T10:06:33.738Z,24.90
2017-08-16T10:09:00.045Z,25.10
2017-08-16T10:11:26.340Z,25.30
2017-08-16T10:13:52.661Z,25.30
2017-08-16T10:16:19.689Z,25.60
2017-08-16T10:18:46.728Z,25.70
2017-08-16T10:21:13.026Z,25.70
2017-08-16T10:23:39.323Z,25.80
2017-08-16T10:26:06.369Z,25.70
2017-08-16T10:28:33.392Z,25.80
2017-08-16T10:30:59.689Z,25.80
2017-08-16T10:33:25.980Z,25.80
2017-08-16T10:35:52.270Z,26.10
2017-08-16T10:38:18.557Z,26.50
2017-08-16T10:40:44.845Z,26.60
2017-08-16T10:43:11.881Z,26.20
2017-08-16T10:45:38.173Z,26.10
2017-08-16T10:48:04.471Z,26.10
2017-08-16T10:50:30.769Z,26.40
2017-08-16T10:52:57.069Z,26.80
2017-08-16T10:55:23.374Z,26.70
2017-08-16T10:57:49.672Z,26.90
2017-08-16T11:00:16.713Z,27.00
2017-08-16T11:02:43.905Z,26.80
2017-08-16T11:05:10.193Z,26.70
2017-08-16T11:07:37.224Z,26.10
2017-08-16T11:10:03.522Z,26.10
2017-08-16T11:12:29.805Z,26.10
2017-08-16T11:14:56.858Z,26.20
2017-08-16T11:17:23.886Z,26.50
2017-08-16T11:19:50.168Z,26.40
2017-08-16T11:22:16.462Z,26.70
2017-08-16T11:24:43.489Z,27.60
2017-08-16T11:27:09.788Z,27.50
2017-08-16T11:29:36.073Z,27.40
2017-08-16T11:32:02.361Z,27.00
2017-08-16T11:34:28.654Z,26.50
2017-08-16T11:36:54.957Z,26.30
2017-08-16T11:39:21.987Z,26.20
2017-08-16T11:41:49.022Z,26.20
2017-08-16T11:44:15.311Z,26.20
2017-08-16T11:46:41.594Z,26.50
2017-08-16T11:49:08.618Z,26.70
2017-08-16T11:51:34.905Z,26.60
2017-08-16T11:54:01.205Z,26.90
2017-08-16T11:56:28.237Z,27.40
2017-08-16T11:58:54.526Z,27.40
2017-08-16T12:01:20.832Z,27.60
2017-08-16T12:03:47.122Z,27.40
2017-08-16T12:06:13.421Z,27.30
2017-08-16T12:08:39.709Z,27.40
2017-08-16T12:11:05.993Z,27.70
2017-08-16T12:13:32.290Z,28.30
2017-08-16T12:15:58.581Z,28.60
2017-08-16T12:18:25.608Z,29.30
2017-08-16T12:20:52.660Z,29.50
2017-08-16T12:23:18.957Z,29.40
2017-08-16T12:25:45.257Z,29.60
2017-08-16T12:28:11.544Z,30.10
2017-08-16T12:30:37.835Z,30.20
2017-08-16T12:33:04.157Z,30.40
2017-08-16T12:35:30.445Z,30.20
2017-08-16T12:37:56.737Z,29.50
2017-08-16T12:40:23.021Z,29.30
2017-08-16T12:42:50.061Z,30.90
2017-08-16T12:45:17.093Z,31.40
2017-08-16T12:47:43.389Z,31.40
2017-08-16T12:50:09.693Z,32.00
2017-08-16T12:52:35.995Z,33.00
2017-08-16T12:55:02.296Z,33.20
2017-08-16T12:57:28.600Z,32.70
2017-08-16T12:59:54.882Z,32.10
2017-08-16T13:02:21.165Z,31.80
2017-08-16T13:04:47.449Z,32.20
2017-08-16T13:07:14.476Z,33.30
2017-08-16T13:09:40.761Z,33.20
2017-08-16T13:12:07.044Z,33.60
2017-08-16T13:14:34.077Z,34.00
2017-08-16T13:17:00.380Z,34.00
2017-08-16T13:19:26.694Z,33.80
2017-08-16T13:21:52.976Z,34.40
2017-08-16T13:24:19.274Z,35.30
2017-08-16T13:26:45.561Z,35.80
2017-08-16T13:29:11.857Z,36.40
2017-08-16T13:31:38.149Z,36.40
2017-08-16T13:34:04.445Z,36.80
2017-08-16T13:36:31.761Z,37.30
2017-08-16T13:38:58.073Z,37.50
2017-08-16T13:41:25.370Z,37.70
2017-08-16T13:43:52.402Z,37.60
2017-08-16T13:46:19.424Z,37.50
2017-08-16T13:48:45.705Z,37.50
2017-08-16T13:51:13.010Z,36.90
2017-08-16T13:53:39.289Z,36.20
2017-08-16T13:56:05.580Z,35.10
2017-08-16T13:58:31.873Z,34.10
2017-08-16T14:00:59.184Z,33.70
2017-08-16T14:03:25.478Z,33.30
2017-08-16T14:05:52.788Z,32.60
2017-08-16T14:08:20.093Z,32.00
2017-08-16T14:10:46.393Z,31.40
2017-08-16T14:13:12.681Z,32.20
2017-08-16T14:15:38.973Z,33.00
2017-08-16T14:18:05.273Z,34.30
2017-08-16T14:20:31.575Z,35.10
2017-08-16T14:22:57.865Z,36.10
2017-08-16T14:25:24.204Z,35.90
2017-08-16T14:27:51.241Z,36.20
2017-08-16T14:30:17.534Z,36.20
2017-08-16T14:32:43.833Z,36.90
2017-08-16T14:35:10.122Z,37.20
2017-08-16T14:37:36.430Z,37.60
2017-08-16T14:40:02.773Z,38.20
2017-08-16T14:42:30.104Z,38.60
2017-08-16T14:44:56.397Z,38.30
2017-08-16T14:47:22.706Z,38.50
2017-08-16T14:49:49.749Z,39.00
2017-08-16T14:52:16.034Z,38.90
2017-08-16T14:54:42.328Z,40.00
2017-08-16T14:57:09.369Z,40.20
2017-08-16T14:59:36.407Z,40.40
2017-08-16T15:02:02.693Z,40.30
2017-08-16T15:04:28.985Z,40.30
2017-08-16T15:06:56.018Z,39.30
2017-08-16T15:09:23.054Z,39.50
2017-08-16T15:11:49.343Z,39.40
2017-08-16T15:14:15.664Z,39.60
2017-08-16T15:16:41.965Z,39.80
2017-08-16T15:19:09.034Z,40.10
2017-08-16T15:21:35.346Z,40.10
2017-08-16T15:24:02.380Z,38.60
2017-08-16T15:26:29.413Z,37.00
2017-08-16T15:28:55.689Z,36.90
2017-08-16T15:31:21.974Z,36.10
2017-08-16T15:33:48.261Z,35.30
2017-08-16T15:36:14.585Z,34.40
2017-08-16T15:38:40.873Z,33.50
2017-08-16T15:41:07.922Z,32.40
2017-08-16T15:43:34.204Z,32.40
2017-08-16T15:46:00.493Z,33.20
2017-08-16T15:48:26.814Z,34.00
2017-08-16T15:50:53.105Z,34.20
2017-08-16T15:53:19.401Z,34.80
2017-08-16T15:55:45.690Z,35.80
2017-08-16T15:58:12.758Z,36.60
2017-08-16T16:00:39.056Z,36.60
2017-08-16T16:03:05.352Z,36.70
2017-08-16T16:05:31.652Z,36.60
2017-08-16T16:07:57.948Z,36.90
2017-08-16T16:10:24.237Z,36.70
2017-08-16T16:12:50.529Z,36.80
2017-08-16T16:15:17.581Z,36.70
2017-08-16T16:17:43.946Z,36.70
2017-08-16T16:20:10.237Z,36.70
2017-08-16T16:22:37.265Z,36.10
2017-08-16T16:25:03.557Z,36.00
2017-08-16T16:27:29.849Z,36.10
2017-08-16T16:29:56.129Z,36.50
2017-08-16T16:32:22.412Z,36.50
2017-08-16T16:34:48.709Z,36.20
2017-08-16T16:37:15.014Z,36.40
2017-08-16T16:39:41.314Z,36.20
2017-08-16T16:42:07.614Z,35.60
2017-08-16T16:44:34.652Z,34.70
2017-08-16T16:47:01.697Z,34.40
2017-08-16T16:49:28.741Z,34.60
2017-08-16T16:51:55.043Z,34.60
2017-08-16T16:54:21.357Z,34.80
2017-08-16T16:56:47.640Z,34.80
2017-08-16T16:59:14.673Z,34.80
2017-08-16T17:01:40.961Z,34.80
2017-08-16T17:04:07.253Z,34.40
2017-08-16T17:06:34.273Z,33.70
2017-08-16T17:09:00.593Z,33.60
2017-08-16T17:11:26.886Z,33.30
2017-08-16T17:13:53.181Z,32.80
2017-08-16T17:16:19.493Z,32.00
2017-08-16T17:18:45.776Z,31.30
2017-08-16T17:21:12.086Z,30.60
2017-08-16T17:23:38.373Z,30.10
2017-08-16T17:26:04.669Z,29.50
2017-08-16T17:28:30.965Z,29.10
2017-08-16T17:30:57.270Z,28.60
2017-08-16T17:33:23.569Z,28.10
2017-08-16T17:35:49.848Z,27.70
2017-08-16T17:38:16.894Z,27.00
2017-08-16T17:40:43.193Z,26.90
2017-08-16T17:43:09.482Z,26.60
2017-08-16T17:45:35.778Z,26.30
2017-08-16T17:48:02.812Z,25.80
2017-08-16T17:50:29.096Z,25.70
2017-08-16T17:52:55.381Z,25.60
2017-08-16T17:55:22.432Z,25.00
2017-08-16T17:57:49.461Z,24.70
2017-08-16T18:00:15.757Z,24.60
2017-08-16T18:02:42.084Z,24.30
2017-08-16T18:05:08.378Z,24.10
2017-08-16T18:07:34.673Z,23.80
2017-08-16T18:10:00.957Z,23.80
2017-08-16T18:12:27.261Z,23.50
2017-08-16T18:14:54.287Z,23.20
2017-08-16T18:17:20.581Z,23.20
2017-08-16T18:19:46.866Z,23.00
2017-08-16T18:22:13.157Z,22.90
2017-08-16T18:24:39.454Z,22.90
2017-08-16T18:27:06.751Z,22.80
2017-08-16T18:29:33.041Z,22.70
2017-08-16T18:31:59.323Z,22.60
2017-08-16T18:34:26.357Z,22.40
2017-08-16T18:36:52.646Z,22.40
2017-08-16T18:39:18.937Z,22.40
2017-08-16T18:41:45.956Z,22.20
2017-08-16T18:44:12.240Z,22.10
2017-08-16T18:46:38.538Z,22.00
2017-08-16T18:49:05.564Z,21.90
2017-08-16T18:51:31.854Z,21.80
2017-08-16T18:53:58.146Z,21.80
2017-08-16T18:56:26.185Z,21.60
2017-08-16T18:58:52.474Z,21.50
2017-08-16T19:01:18.765Z,21.50
2017-08-16T19:03:45.058Z,21.50
2017-08-16T19:06:11.349Z,21.40
2017-08-16T19:08:38.661Z,21.40
2017-08-16T19:11:04.961Z,21.30
2017-08-16T19:13:32.317Z,21.20
2017-08-16T19:15:59.653Z,21.30
2017-08-16T19:18:25.941Z,21.10
2017-08-16T19:20:52.977Z,20.90
2017-08-16T19:23:19.263Z,20.90
2017-08-16T19:25:45.558Z,20.70
2017-08-16T19:28:11.849Z,20.60
2017-08-16T19:30:38.133Z,20.50
2017-08-16T19:33:04.417Z,20.50
2017-08-16T19:35:30.716Z,20.50
2017-08-16T19:37:57.005Z,20.50
2017-08-16T19:40:24.041Z,20.40
2017-08-16T19:42:51.069Z,20.30
2017-08-16T19:45:17.353Z,20.30
2017-08-16T19:47:43.645Z,20.30
2017-08-16T19:50:10.685Z,20.30
2017-08-16T19:52:36.973Z,20.20
2017-08-16T19:55:03.256Z,20.30
2017-08-16T19:57:30.282Z,20.30
2017-08-16T19:59:56.574Z,20.30
2017-08-16T20:02:22.862Z,20.30
2017-08-16T20:04:49.884Z,20.20
2017-08-16T20:07:16.169Z,20.20
2017-08-16T20:09:42.457Z,20.20
2017-08-16T20:12:09.497Z,20.20
2017-08-16T20:14:36.530Z,20.20
2017-08-16T20:17:02.832Z,20.10
2017-08-16T20:19:29.134Z,20.10
2017-08-16T20:21:55.433Z,20.00
2017-08-16T20:24:21.744Z,20.00
2017-08-16T20:26:48.058Z,20.00
2017-08-16T20:29:14.349Z,20.00
2017-08-16T20:31:40.645Z,20.00
2017-08-16T20:34:06.929Z,20.00
2017-08-16T20:36:34.218Z,19.90
2017-08-16T20:39:00.517Z,19.90
2017-08-16T20:41:26.797Z,19.90
2017-08-16T20:43:53.837Z,19.80
2017-08-16T20:46:20.120Z,19.80
2017-08-16T20:48:46.410Z,19.70
2017-08-16T20:51:13.429Z,19.60
2017-08-16T20:53:39.717Z,19.60
2017-08-16T20:56:06.005Z,19.70
2017-08-16T20:58:33.046Z,19.60
2017-08-16T21:00:59.337Z,19.60
2017-08-16T21:03:25.617Z,19.60
2017-08-16T21:05:52.660Z,19.60
2017-08-16T21:08:19.686Z,19.60
2017-08-16T21:10:46.026Z,19.60
2017-08-16T21:13:12.312Z,19.60
2017-08-16T21:15:38.605Z,19.60
2017-08-16T21:18:05.662Z,19.60
2017-08-16T21:20:31.961Z,19.60
2017-08-16T21:22:58.248Z,19.50
2017-08-16T21:25:24.543Z,19.30
2017-08-16T21:27:50.828Z,19.40
2017-08-16T21:30:17.114Z,19.40
2017-08-16T21:32:43.410Z,19.40
2017-08-16T21:35:09.697Z,19.30
2017-08-16T21:37:36.001Z,19.30
2017-08-16T21:40:02.292Z,19.30
2017-08-16T21:42:28.580Z,19.20
2017-08-16T21:44:54.872Z,19.20
2017-08-16T21:47:21.901Z,19.20
2017-08-16T21:49:49.209Z,19.20
2017-08-16T21:52:15.500Z,19.30
2017-08-16T21:54:42.533Z,19.20
2017-08-16T21:57:09.577Z,19.20
2017-08-16T21:59:35.862Z,19.10
2017-08-16T22:02:03.177Z,19.00
2017-08-16T22:04:29.464Z,18.90
2017-08-16T22:06:56.765Z,18.70
2017-08-16T22:09:23.060Z,18.70
2017-08-16T22:11:49.353Z,18.70
2017-08-16T22:14:15.660Z,18.70
2017-08-16T22:16:42.947Z,18.80
2017-08-16T22:19:09.232Z,18.80
2017-08-16T22:21:36.257Z,18.90
2017-08-16T22:24:02.577Z,18.80
2017-08-16T22:26:28.873Z,18.90
2017-08-16T22:28:55.164Z,18.80
2017-08-16T22:31:22.194Z,18.90
2017-08-16T22:33:48.493Z,18.90
2017-08-16T22:36:15.807Z,18.90
2017-08-16T22:38:42.121Z,18.90
2017-08-16T22:41:09.152Z,19.00
2017-08-16T22:43:35.444Z,18.90
2017-08-16T22:46:01.754Z,18.90
2017-08-16T22:48:28.053Z,19.00
2017-08-16T22:50:55.089Z,18.90
2017-08-16T22:53:21.371Z,18.90
2017-08-16T22:55:47.660Z,18.90
2017-08-16T22:58:14.688Z,18.90
2017-08-16T23:00:40.975Z,18.90
2017-08-16T23:03:07.266Z,18.90
2017-08-16T23:05:33.568Z,18.90
2017-08-16T23:07:59.854Z,18.80
2017-08-16T23:10:26.149Z,18.80
2017-08-16T23:12:53.177Z,18.90
2017-08-16T23:15:19.493Z,18.90
2017-08-16T23:17:45.776Z,18.90
2017-08-16T23:20:12.070Z,18.80
2017-08-16T23:22:38.362Z,18.80
2017-08-16T23:25:04.676Z,18.80
2017-08-16T23:27:31.984Z,18.70
2017-08-16T23:29:58.294Z,18.70
2017-08-16T23:32:24.592Z,18.70
2017-08-16T23:34:50.873Z,18.70
2017-08-16T23:37:17.161Z,18.60
2017-08-16T23:39:43.451Z,18.60
2017-08-16T23:42:10.482Z,18.50
2017-08-16T23:44:37.504Z,18.50
2017-08-16T23:47:03.789Z,18.50
2017-08-16T23:49:30.079Z,18.40
2017-08-16T23:51:56.361Z,18.30
2017-08-16T23:54:22.666Z,18.30
2017-08-16T23:56:48.985Z,18.00
2017-08-16T23:59:16.014Z,18.00
